sensor_id;sensor_type;location;lat;lon;timestamp;P1;durP1;ratioP1;P2;durP2;ratioP2
28587;SDS011;15787;49.662;10.162;2023-06-10T00:02:01;13.52;;;8.60;;
28587;SDS011;15787;49.662;10.162;2023-06-10T00:04:35;10.90;;;8.80;;
28587;SDS011;15787;49.662;10.162;2023-06-10T00:07:10;14.88;;;10.45;;
28587;SDS011;15787;49.662;10.162;2023-06-10T00:09:43;12.48;;;9.07;;
28587;SDS011;15787;49.662;10.162;2023-06-10T00:12:16;13.15;;;9.55;;
28587;SDS011;15787;49.662;10.162;2023-06-10T00:14:49;12.52;;;9.90;;
28587;SDS011;15787;49.662;10.162;2023-06-10T00:17:24;14.93;;;9.45;;
28587;SDS011;15787;49.662;10.162;2023-06-10T00:20:00;13.40;;;9.10;;
28587;SDS011;15787;49.662;10.162;2023-06-10T00:22:38;11.85;;;9.27;;
28587;SDS011;15787;49.662;10.162;2023-06-10T00:25:13;11.73;;;8.85;;
28587;SDS011;15787;49.662;10.162;2023-06-10T00:27:46;12.35;;;9.30;;
28587;SDS011;15787;49.662;10.162;2023-06-10T00:30:19;11.80;;;9.32;;
28587;SDS011;15787;49.662;10.162;2023-06-10T00:32:53;14.30;;;9.48;;
28587;SDS011;15787;49.662;10.162;2023-06-10T00:35:26;12.05;;;9.60;;
28587;SDS011;15787;49.662;10.162;2023-06-10T00:38:00;10.63;;;8.13;;
28587;SDS011;15787;49.662;10.162;2023-06-10T00:40:33;13.52;;;9.23;;
28587;SDS011;15787;49.662;10.162;2023-06-10T00:43:11;15.10;;;9.05;;
28587;SDS011;15787;49.662;10.162;2023-06-10T00:45:44;13.57;;;8.93;;
28587;SDS011;15787;49.662;10.162;2023-06-10T00:48:18;9.80;;;7.80;;
28587;SDS011;15787;49.662;10.162;2023-06-10T00:50:51;15.70;;;9.23;;
28587;SDS011;15787;49.662;10.162;2023-06-10T00:53:27;13.50;;;8.52;;
28587;SDS011;15787;49.662;10.162;2023-06-10T00:56:01;11.55;;;9.60;;
28587;SDS011;15787;49.662;10.162;2023-06-10T00:58:34;12.48;;;8.43;;
28587;SDS011;15787;49.662;10.162;2023-06-10T01:01:08;11.55;;;8.90;;
28587;SDS011;15787;49.662;10.162;2023-06-10T01:03:42;11.23;;;9.00;;
28587;SDS011;15787;49.662;10.162;2023-06-10T01:06:19;13.38;;;9.55;;
28587;SDS011;15787;49.662;10.162;2023-06-10T01:09:05;10.85;;;8.15;;
28587;SDS011;15787;49.662;10.162;2023-06-10T01:11:46;11.25;;;8.90;;
28587;SDS011;15787;49.662;10.162;2023-06-10T01:14:24;15.80;;;9.13;;
28587;SDS011;15787;49.662;10.162;2023-06-10T01:16:57;12.88;;;9.25;;
28587;SDS011;15787;49.662;10.162;2023-06-10T01:19:33;13.05;;;9.05;;
28587;SDS011;15787;49.662;10.162;2023-06-10T01:22:09;11.68;;;8.70;;
28587;SDS011;15787;49.662;10.162;2023-06-10T01:24:48;13.13;;;8.98;;
28587;SDS011;15787;49.662;10.162;2023-06-10T01:27:21;11.00;;;8.70;;
28587;SDS011;15787;49.662;10.162;2023-06-10T01:29:58;12.38;;;8.07;;
28587;SDS011;15787;49.662;10.162;2023-06-10T01:32:37;13.90;;;8.80;;
28587;SDS011;15787;49.662;10.162;2023-06-10T01:35:15;13.68;;;8.93;;
28587;SDS011;15787;49.662;10.162;2023-06-10T01:37:53;14.88;;;9.13;;
28587;SDS011;15787;49.662;10.162;2023-06-10T01:40:27;12.35;;;8.88;;
28587;SDS011;15787;49.662;10.162;2023-06-10T01:43:02;18.50;;;10.57;;
28587;SDS011;15787;49.662;10.162;2023-06-10T01:45:35;10.55;;;8.85;;
28587;SDS011;15787;49.662;10.162;2023-06-10T01:48:07;13.35;;;8.50;;
28587;SDS011;15787;49.662;10.162;2023-06-10T01:50:41;12.98;;;9.10;;
28587;SDS011;15787;49.662;10.162;2023-06-10T01:53:16;10.43;;;8.52;;
28587;SDS011;15787;49.662;10.162;2023-06-10T01:55:50;12.18;;;9.02;;
28587;SDS011;15787;49.662;10.162;2023-06-10T01:58:23;11.27;;;8.40;;
28587;SDS011;15787;49.662;10.162;2023-06-10T02:00:56;11.35;;;8.85;;
28587;SDS011;15787;49.662;10.162;2023-06-10T02:03:29;11.38;;;8.95;;
28587;SDS011;15787;49.662;10.162;2023-06-10T02:06:03;11.60;;;9.05;;
28587;SDS011;15787;49.662;10.162;2023-06-10T02:08:38;12.27;;;8.68;;
28587;SDS011;15787;49.662;10.162;2023-06-10T02:11:11;16.83;;;8.93;;
28587;SDS011;15787;49.662;10.162;2023-06-10T02:13:44;14.13;;;8.85;;
28587;SDS011;15787;49.662;10.162;2023-06-10T02:16:17;13.48;;;8.48;;
28587;SDS011;15787;49.662;10.162;2023-06-10T02:18:50;11.75;;;8.85;;
28587;SDS011;15787;49.662;10.162;2023-06-10T02:21:23;12.00;;;8.95;;
28587;SDS011;15787;49.662;10.162;2023-06-10T02:23:57;13.48;;;8.77;;
28587;SDS011;15787;49.662;10.162;2023-06-10T02:26:30;11.75;;;8.77;;
28587;SDS011;15787;49.662;10.162;2023-06-10T02:29:04;11.90;;;9.23;;
28587;SDS011;15787;49.662;10.162;2023-06-10T02:31:37;12.60;;;9.38;;
28587;SDS011;15787;49.662;10.162;2023-06-10T02:34:12;12.73;;;8.82;;
28587;SDS011;15787;49.662;10.162;2023-06-10T02:36:45;12.77;;;9.35;;
28587;SDS011;15787;49.662;10.162;2023-06-10T02:39:22;10.95;;;8.65;;
28587;SDS011;15787;49.662;10.162;2023-06-10T02:41:55;12.13;;;8.63;;
28587;SDS011;15787;49.662;10.162;2023-06-10T02:44:28;13.70;;;8.45;;
28587;SDS011;15787;49.662;10.162;2023-06-10T02:47:01;17.48;;;9.77;;
28587;SDS011;15787;49.662;10.162;2023-06-10T02:49:35;17.83;;;8.77;;
28587;SDS011;15787;49.662;10.162;2023-06-10T02:52:08;12.63;;;9.52;;
28587;SDS011;15787;49.662;10.162;2023-06-10T02:54:44;13.35;;;9.52;;
28587;SDS011;15787;49.662;10.162;2023-06-10T02:57:18;14.07;;;10.32;;
28587;SDS011;15787;49.662;10.162;2023-06-10T02:59:51;12.13;;;8.85;;
28587;SDS011;15787;49.662;10.162;2023-06-10T03:02:25;13.52;;;8.75;;
28587;SDS011;15787;49.662;10.162;2023-06-10T03:05:00;14.10;;;9.25;;
28587;SDS011;15787;49.662;10.162;2023-06-10T03:07:33;13.48;;;8.80;;
28587;SDS011;15787;49.662;10.162;2023-06-10T03:10:08;18.27;;;10.05;;
28587;SDS011;15787;49.662;10.162;2023-06-10T03:12:44;14.13;;;8.98;;
28587;SDS011;15787;49.662;10.162;2023-06-10T03:15:17;13.82;;;8.90;;
28587;SDS011;15787;49.662;10.162;2023-06-10T03:17:53;11.70;;;9.13;;
28587;SDS011;15787;49.662;10.162;2023-06-10T03:20:27;13.25;;;9.43;;
28587;SDS011;15787;49.662;10.162;2023-06-10T03:23:01;14.82;;;9.20;;
28587;SDS011;15787;49.662;10.162;2023-06-10T03:25:35;11.63;;;8.35;;
28587;SDS011;15787;49.662;10.162;2023-06-10T03:28:09;20.08;;;8.98;;
28587;SDS011;15787;49.662;10.162;2023-06-10T03:30:43;12.60;;;9.05;;
28587;SDS011;15787;49.662;10.162;2023-06-10T03:33:17;11.68;;;8.43;;
28587;SDS011;15787;49.662;10.162;2023-06-10T03:35:50;11.73;;;8.57;;
28587;SDS011;15787;49.662;10.162;2023-06-10T03:38:23;12.65;;;8.93;;
28587;SDS011;15787;49.662;10.162;2023-06-10T03:40:59;15.35;;;9.35;;
28587;SDS011;15787;49.662;10.162;2023-06-10T03:43:32;11.63;;;8.82;;
28587;SDS011;15787;49.662;10.162;2023-06-10T03:46:05;12.80;;;9.50;;
28587;SDS011;15787;49.662;10.162;2023-06-10T03:48:39;16.58;;;8.95;;
28587;SDS011;15787;49.662;10.162;2023-06-10T03:51:12;12.82;;;8.63;;
28587;SDS011;15787;49.662;10.162;2023-06-10T03:53:46;15.38;;;8.85;;
28587;SDS011;15787;49.662;10.162;2023-06-10T03:56:21;13.90;;;8.88;;
28587;SDS011;15787;49.662;10.162;2023-06-10T03:58:54;18.70;;;9.55;;
28587;SDS011;15787;49.662;10.162;2023-06-10T04:01:27;16.83;;;9.50;;
28587;SDS011;15787;49.662;10.162;2023-06-10T04:04:00;11.80;;;9.35;;
28587;SDS011;15787;49.662;10.162;2023-06-10T04:06:37;15.88;;;10.15;;
28587;SDS011;15787;49.662;10.162;2023-06-10T04:09:13;17.27;;;10.27;;
28587;SDS011;15787;49.662;10.162;2023-06-10T04:11:49;13.48;;;9.52;;
28587;SDS011;15787;49.662;10.162;2023-06-10T04:14:23;14.85;;;9.77;;
28587;SDS011;15787;49.662;10.162;2023-06-10T04:16:57;18.83;;;10.80;;
28587;SDS011;15787;49.662;10.162;2023-06-10T04:19:31;14.93;;;11.18;;
28587;SDS011;15787;49.662;10.162;2023-06-10T04:22:04;14.30;;;9.65;;
28587;SDS011;15787;49.662;10.162;2023-06-10T04:24:42;18.20;;;10.23;;
28587;SDS011;15787;49.662;10.162;2023-06-10T04:27:17;14.88;;;10.15;;
28587;SDS011;15787;49.662;10.162;2023-06-10T04:29:51;15.95;;;9.77;;
28587;SDS011;15787;49.662;10.162;2023-06-10T04:32:26;13.93;;;10.63;;
28587;SDS011;15787;49.662;10.162;2023-06-10T04:34:59;17.52;;;10.85;;
28587;SDS011;15787;49.662;10.162;2023-06-10T04:37:33;15.70;;;10.82;;
28587;SDS011;15787;49.662;10.162;2023-06-10T04:40:07;17.10;;;11.98;;
28587;SDS011;15787;49.662;10.162;2023-06-10T04:42:42;17.02;;;10.95;;
28587;SDS011;15787;49.662;10.162;2023-06-10T04:45:16;16.58;;;10.45;;
28587;SDS011;15787;49.662;10.162;2023-06-10T04:47:50;16.75;;;11.05;;
28587;SDS011;15787;49.662;10.162;2023-06-10T04:50:23;15.45;;;10.43;;
28587;SDS011;15787;49.662;10.162;2023-06-10T04:52:56;15.98;;;10.70;;
28587;SDS011;15787;49.662;10.162;2023-06-10T04:55:29;15.98;;;11.27;;
28587;SDS011;15787;49.662;10.162;2023-06-10T04:58:04;15.20;;;10.63;;
28587;SDS011;15787;49.662;10.162;2023-06-10T05:00:37;11.30;;;9.60;;
28587;SDS011;15787;49.662;10.162;2023-06-10T05:03:10;15.50;;;10.38;;
28587;SDS011;15787;49.662;10.162;2023-06-10T05:05:44;15.05;;;11.20;;
28587;SDS011;15787;49.662;10.162;2023-06-10T05:08:17;15.07;;;11.77;;
28587;SDS011;15787;49.662;10.162;2023-06-10T05:10:50;18.98;;;12.60;;
28587;SDS011;15787;49.662;10.162;2023-06-10T05:13:25;17.10;;;12.60;;
28587;SDS011;15787;49.662;10.162;2023-06-10T05:15:58;17.80;;;11.95;;
28587;SDS011;15787;49.662;10.162;2023-06-10T05:18:31;17.63;;;12.63;;
28587;SDS011;15787;49.662;10.162;2023-06-10T05:21:04;16.15;;;11.82;;
28587;SDS011;15787;49.662;10.162;2023-06-10T05:23:37;18.92;;;11.43;;
28587;SDS011;15787;49.662;10.162;2023-06-10T05:26:10;15.38;;;11.25;;
28587;SDS011;15787;49.662;10.162;2023-06-10T05:28:44;14.38;;;11.10;;
28587;SDS011;15787;49.662;10.162;2023-06-10T05:31:18;19.73;;;12.35;;
28587;SDS011;15787;49.662;10.162;2023-06-10T05:33:51;16.02;;;11.70;;
28587;SDS011;15787;49.662;10.162;2023-06-10T05:36:24;17.88;;;12.13;;
28587;SDS011;15787;49.662;10.162;2023-06-10T05:38:58;14.57;;;11.98;;
28587;SDS011;15787;49.662;10.162;2023-06-10T05:41:31;16.73;;;12.15;;
28587;SDS011;15787;49.662;10.162;2023-06-10T05:44:05;17.10;;;12.50;;
28587;SDS011;15787;49.662;10.162;2023-06-10T05:46:38;17.58;;;12.13;;
28587;SDS011;15787;49.662;10.162;2023-06-10T05:49:12;15.88;;;11.52;;
28587;SDS011;15787;49.662;10.162;2023-06-10T05:51:45;14.15;;;11.05;;
28587;SDS011;15787;49.662;10.162;2023-06-10T05:54:18;15.73;;;10.85;;
28587;SDS011;15787;49.662;10.162;2023-06-10T05:56:51;14.45;;;11.60;;
28587;SDS011;15787;49.662;10.162;2023-06-10T05:59:25;14.55;;;10.93;;
28587;SDS011;15787;49.662;10.162;2023-06-10T06:01:59;12.85;;;11.32;;
28587;SDS011;15787;49.662;10.162;2023-06-10T06:04:32;13.98;;;11.63;;
28587;SDS011;15787;49.662;10.162;2023-06-10T06:07:08;15.38;;;11.52;;
28587;SDS011;15787;49.662;10.162;2023-06-10T06:09:42;15.35;;;10.98;;
28587;SDS011;15787;49.662;10.162;2023-06-10T06:12:15;15.77;;;12.18;;
28587;SDS011;15787;49.662;10.162;2023-06-10T06:14:50;17.70;;;12.95;;
28587;SDS011;15787;49.662;10.162;2023-06-10T06:17:23;14.05;;;10.50;;
28587;SDS011;15787;49.662;10.162;2023-06-10T06:19:56;16.05;;;11.27;;
28587;SDS011;15787;49.662;10.162;2023-06-10T06:22:30;15.68;;;12.32;;
28587;SDS011;15787;49.662;10.162;2023-06-10T06:25:04;13.77;;;11.05;;
28587;SDS011;15787;49.662;10.162;2023-06-10T06:27:44;14.57;;;10.93;;
28587;SDS011;15787;49.662;10.162;2023-06-10T06:30:23;12.38;;;10.98;;
28587;SDS011;15787;49.662;10.162;2023-06-10T06:32:59;13.40;;;9.75;;
28587;SDS011;15787;49.662;10.162;2023-06-10T06:35:42;14.80;;;11.18;;
28587;SDS011;15787;49.662;10.162;2023-06-10T06:38:24;13.43;;;10.35;;
28587;SDS011;15787;49.662;10.162;2023-06-10T06:41:00;14.25;;;9.35;;
28587;SDS011;15787;49.662;10.162;2023-06-10T06:43:36;13.27;;;9.88;;
28587;SDS011;15787;49.662;10.162;2023-06-10T06:46:32;13.40;;;9.57;;
28587;SDS011;15787;49.662;10.162;2023-06-10T06:49:10;16.52;;;9.40;;
28587;SDS011;15787;49.662;10.162;2023-06-10T06:51:44;11.95;;;9.35;;
28587;SDS011;15787;49.662;10.162;2023-06-10T06:54:25;12.38;;;9.00;;
28587;SDS011;15787;49.662;10.162;2023-06-10T06:57:00;9.63;;;8.13;;
28587;SDS011;15787;49.662;10.162;2023-06-10T06:59:34;10.00;;;8.55;;
28587;SDS011;15787;49.662;10.162;2023-06-10T07:02:10;11.55;;;8.73;;
28587;SDS011;15787;49.662;10.162;2023-06-10T07:15:19;12.65;;;8.75;;
28587;SDS011;15787;49.662;10.162;2023-06-10T07:17:53;8.80;;;7.90;;
28587;SDS011;15787;49.662;10.162;2023-06-10T07:20:27;10.52;;;9.00;;
28587;SDS011;15787;49.662;10.162;2023-06-10T07:23:01;11.30;;;8.27;;
28587;SDS011;15787;49.662;10.162;2023-06-10T07:25:34;9.98;;;8.13;;
28587;SDS011;15787;49.662;10.162;2023-06-10T07:28:07;11.25;;;8.48;;
28587;SDS011;15787;49.662;10.162;2023-06-10T07:30:40;10.43;;;7.88;;
28587;SDS011;15787;49.662;10.162;2023-06-10T07:33:14;13.38;;;8.68;;
28587;SDS011;15787;49.662;10.162;2023-06-10T07:35:47;12.18;;;8.07;;
28587;SDS011;15787;49.662;10.162;2023-06-10T07:38:20;8.50;;;7.43;;
28587;SDS011;15787;49.662;10.162;2023-06-10T07:40:53;10.20;;;8.23;;
28587;SDS011;15787;49.662;10.162;2023-06-10T07:43:26;9.07;;;7.93;;
28587;SDS011;15787;49.662;10.162;2023-06-10T07:45:59;9.90;;;8.10;;
28587;SDS011;15787;49.662;10.162;2023-06-10T07:48:34;9.55;;;7.80;;
28587;SDS011;15787;49.662;10.162;2023-06-10T07:51:06;9.35;;;8.25;;
28587;SDS011;15787;49.662;10.162;2023-06-10T07:53:39;11.30;;;7.90;;
28587;SDS011;15787;49.662;10.162;2023-06-10T07:56:12;8.77;;;7.47;;
28587;SDS011;15787;49.662;10.162;2023-06-10T07:58:45;10.18;;;7.60;;
28587;SDS011;15787;49.662;10.162;2023-06-10T08:01:18;9.98;;;7.97;;
28587;SDS011;15787;49.662;10.162;2023-06-10T08:03:53;11.00;;;7.00;;
28587;SDS011;15787;49.662;10.162;2023-06-10T08:06:26;8.88;;;7.70;;
28587;SDS011;15787;49.662;10.162;2023-06-10T08:09:02;8.82;;;7.57;;
28587;SDS011;15787;49.662;10.162;2023-06-10T08:11:35;7.50;;;6.65;;
28587;SDS011;15787;49.662;10.162;2023-06-10T08:14:08;7.75;;;6.78;;
28587;SDS011;15787;49.662;10.162;2023-06-10T08:16:41;5.22;;;4.07;;
28587;SDS011;15787;49.662;10.162;2023-06-10T08:19:17;6.90;;;4.40;;
28587;SDS011;15787;49.662;10.162;2023-06-10T08:21:50;5.25;;;4.28;;
28587;SDS011;15787;49.662;10.162;2023-06-10T08:24:23;6.82;;;3.90;;
28587;SDS011;15787;49.662;10.162;2023-06-10T08:26:56;8.23;;;4.30;;
28587;SDS011;15787;49.662;10.162;2023-06-10T08:29:29;5.18;;;3.95;;
28587;SDS011;15787;49.662;10.162;2023-06-10T08:32:03;5.22;;;4.05;;
28587;SDS011;15787;49.662;10.162;2023-06-10T08:34:38;5.78;;;3.78;;
28587;SDS011;15787;49.662;10.162;2023-06-10T08:37:12;5.22;;;3.67;;
28587;SDS011;15787;49.662;10.162;2023-06-10T08:39:45;4.78;;;4.13;;
28587;SDS011;15787;49.662;10.162;2023-06-10T08:42:19;5.18;;;3.78;;
28587;SDS011;15787;49.662;10.162;2023-06-10T08:45:05;3.67;;;3.30;;
28587;SDS011;15787;49.662;10.162;2023-06-10T08:47:44;6.70;;;4.20;;
28587;SDS011;15787;49.662;10.162;2023-06-10T08:50:19;5.03;;;3.90;;
28587;SDS011;15787;49.662;10.162;2023-06-10T08:52:54;5.32;;;3.78;;
28587;SDS011;15787;49.662;10.162;2023-06-10T08:55:31;4.45;;;3.88;;
28587;SDS011;15787;49.662;10.162;2023-06-10T08:58:05;4.47;;;3.80;;
28587;SDS011;15787;49.662;10.162;2023-06-10T09:00:38;6.60;;;3.95;;
28587;SDS011;15787;49.662;10.162;2023-06-10T09:03:12;4.35;;;3.60;;
28587;SDS011;15787;49.662;10.162;2023-06-10T09:05:47;4.03;;;3.13;;
28587;SDS011;15787;49.662;10.162;2023-06-10T09:08:25;4.68;;;3.45;;
28587;SDS011;15787;49.662;10.162;2023-06-10T09:10:58;6.00;;;2.92;;
28587;SDS011;15787;49.662;10.162;2023-06-10T09:13:31;4.70;;;3.17;;
28587;SDS011;15787;49.662;10.162;2023-06-10T09:16:04;5.43;;;3.33;;
28587;SDS011;15787;49.662;10.162;2023-06-10T09:18:37;7.55;;;3.45;;
28587;SDS011;15787;49.662;10.162;2023-06-10T09:21:12;4.82;;;3.83;;
28587;SDS011;15787;49.662;10.162;2023-06-10T09:23:45;8.98;;;3.28;;
28587;SDS011;15787;49.662;10.162;2023-06-10T09:26:19;4.82;;;3.58;;
28587;SDS011;15787;49.662;10.162;2023-06-10T09:28:52;4.13;;;3.28;;
28587;SDS011;15787;49.662;10.162;2023-06-10T09:31:35;3.97;;;3.20;;
28587;SDS011;15787;49.662;10.162;2023-06-10T09:34:09;4.88;;;3.28;;
28587;SDS011;15787;49.662;10.162;2023-06-10T09:36:45;5.63;;;3.35;;
28587;SDS011;15787;49.662;10.162;2023-06-10T09:39:18;6.05;;;2.67;;
28587;SDS011;15787;49.662;10.162;2023-06-10T09:41:52;3.70;;;3.25;;
28587;SDS011;15787;49.662;10.162;2023-06-10T09:44:25;3.35;;;3.03;;
28587;SDS011;15787;49.662;10.162;2023-06-10T09:46:58;8.07;;;3.15;;
28587;SDS011;15787;49.662;10.162;2023-06-10T09:49:31;4.85;;;3.30;;
28587;SDS011;15787;49.662;10.162;2023-06-10T09:52:06;4.25;;;3.20;;
28587;SDS011;15787;49.662;10.162;2023-06-10T09:54:39;3.42;;;3.13;;
28587;SDS011;15787;49.662;10.162;2023-06-10T09:57:12;4.05;;;3.50;;
28587;SDS011;15787;49.662;10.162;2023-06-10T09:59:46;3.75;;;3.25;;
28587;SDS011;15787;49.662;10.162;2023-06-10T10:02:19;12.23;;;4.05;;
28587;SDS011;15787;49.662;10.162;2023-06-10T10:04:53;6.53;;;3.85;;
28587;SDS011;15787;49.662;10.162;2023-06-10T10:07:32;4.95;;;4.03;;
28587;SDS011;15787;49.662;10.162;2023-06-10T10:10:05;5.40;;;3.67;;
28587;SDS011;15787;49.662;10.162;2023-06-10T10:12:39;5.18;;;3.70;;
28587;SDS011;15787;49.662;10.162;2023-06-10T10:15:13;4.40;;;3.85;;
28587;SDS011;15787;49.662;10.162;2023-06-10T10:17:49;5.43;;;3.35;;
28587;SDS011;15787;49.662;10.162;2023-06-10T10:20:27;6.38;;;4.18;;
28587;SDS011;15787;49.662;10.162;2023-06-10T10:23:05;4.20;;;3.80;;
28587;SDS011;15787;49.662;10.162;2023-06-10T10:25:41;4.57;;;3.40;;
28587;SDS011;15787;49.662;10.162;2023-06-10T10:28:16;5.88;;;4.20;;
28587;SDS011;15787;49.662;10.162;2023-06-10T10:30:53;4.75;;;3.78;;
28587;SDS011;15787;49.662;10.162;2023-06-10T10:33:33;4.50;;;3.50;;
28587;SDS011;15787;49.662;10.162;2023-06-10T10:36:14;7.35;;;3.80;;
28587;SDS011;15787;49.662;10.162;2023-06-10T10:38:49;4.75;;;3.35;;
28587;SDS011;15787;49.662;10.162;2023-06-10T10:41:23;4.78;;;3.70;;
28587;SDS011;15787;49.662;10.162;2023-06-10T10:43:59;5.32;;;2.85;;
28587;SDS011;15787;49.662;10.162;2023-06-10T10:46:41;5.95;;;3.40;;
28587;SDS011;15787;49.662;10.162;2023-06-10T10:51:55;4.30;;;3.13;;
28587;SDS011;15787;49.662;10.162;2023-06-10T10:54:31;4.45;;;3.45;;
28587;SDS011;15787;49.662;10.162;2023-06-10T10:57:11;4.13;;;3.38;;
28587;SDS011;15787;49.662;10.162;2023-06-10T10:59:52;5.22;;;3.63;;
28587;SDS011;15787;49.662;10.162;2023-06-10T11:02:37;5.87;;;3.53;;
28587;SDS011;15787;49.662;10.162;2023-06-10T11:05:16;7.75;;;3.67;;
28587;SDS011;15787;49.662;10.162;2023-06-10T11:07:53;4.47;;;3.30;;
28587;SDS011;15787;49.662;10.162;2023-06-10T11:10:32;5.68;;;3.63;;
28587;SDS011;15787;49.662;10.162;2023-06-10T11:13:07;4.50;;;3.10;;
28587;SDS011;15787;49.662;10.162;2023-06-10T11:15:43;3.72;;;3.13;;
28587;SDS011;15787;49.662;10.162;2023-06-10T11:18:21;4.40;;;3.40;;
28587;SDS011;15787;49.662;10.162;2023-06-10T11:20:57;5.15;;;3.20;;
28587;SDS011;15787;49.662;10.162;2023-06-10T11:23:38;4.15;;;3.17;;
28587;SDS011;15787;49.662;10.162;2023-06-10T11:26:18;3.28;;;2.55;;
28587;SDS011;15787;49.662;10.162;2023-06-10T11:29:03;3.10;;;2.60;;
28587;SDS011;15787;49.662;10.162;2023-06-10T11:31:43;4.72;;;3.38;;
28587;SDS011;15787;49.662;10.162;2023-06-10T11:34:23;3.35;;;2.60;;
28587;SDS011;15787;49.662;10.162;2023-06-10T11:37:00;3.20;;;2.78;;
28587;SDS011;15787;49.662;10.162;2023-06-10T11:39:35;3.83;;;2.92;;
28587;SDS011;15787;49.662;10.162;2023-06-10T11:42:10;5.47;;;3.00;;
28587;SDS011;15787;49.662;10.162;2023-06-10T11:44:47;4.07;;;3.40;;
28587;SDS011;15787;49.662;10.162;2023-06-10T11:47:21;4.03;;;3.00;;
28587;SDS011;15787;49.662;10.162;2023-06-10T11:49:55;3.17;;;2.70;;
28587;SDS011;15787;49.662;10.162;2023-06-10T11:52:34;4.25;;;2.92;;
28587;SDS011;15787;49.662;10.162;2023-06-10T11:55:12;7.15;;;3.20;;
28587;SDS011;15787;49.662;10.162;2023-06-10T11:57:47;5.25;;;2.90;;
28587;SDS011;15787;49.662;10.162;2023-06-10T12:00:20;3.35;;;2.80;;
28587;SDS011;15787;49.662;10.162;2023-06-10T12:02:56;4.32;;;3.00;;
28587;SDS011;15787;49.662;10.162;2023-06-10T12:05:30;5.13;;;2.80;;
28587;SDS011;15787;49.662;10.162;2023-06-10T12:08:09;2.65;;;2.45;;
28587;SDS011;15787;49.662;10.162;2023-06-10T12:13:17;4.50;;;3.00;;
28587;SDS011;15787;49.662;10.162;2023-06-10T12:15:50;5.07;;;2.50;;
28587;SDS011;15787;49.662;10.162;2023-06-10T12:18:23;3.40;;;2.70;;
28587;SDS011;15787;49.662;10.162;2023-06-10T12:20:56;3.30;;;3.00;;
28587;SDS011;15787;49.662;10.162;2023-06-10T12:23:29;4.95;;;2.78;;
28587;SDS011;15787;49.662;10.162;2023-06-10T12:26:02;3.97;;;2.90;;
28587;SDS011;15787;49.662;10.162;2023-06-10T12:28:37;6.65;;;2.88;;
28587;SDS011;15787;49.662;10.162;2023-06-10T12:31:10;3.55;;;2.60;;
28587;SDS011;15787;49.662;10.162;2023-06-10T12:33:43;4.57;;;2.83;;
28587;SDS011;15787;49.662;10.162;2023-06-10T12:36:17;3.30;;;2.50;;
28587;SDS011;15787;49.662;10.162;2023-06-10T12:38:53;3.20;;;2.38;;
28587;SDS011;15787;49.662;10.162;2023-06-10T12:41:36;3.67;;;2.53;;
28587;SDS011;15787;49.662;10.162;2023-06-10T12:44:11;3.53;;;2.42;;
28587;SDS011;15787;49.662;10.162;2023-06-10T12:46:44;4.13;;;2.55;;
28587;SDS011;15787;49.662;10.162;2023-06-10T12:49:20;3.42;;;2.38;;
28587;SDS011;15787;49.662;10.162;2023-06-10T12:51:53;2.92;;;2.47;;
28587;SDS011;15787;49.662;10.162;2023-06-10T12:54:27;5.95;;;2.58;;
28587;SDS011;15787;49.662;10.162;2023-06-10T12:56:59;4.03;;;2.97;;
28587;SDS011;15787;49.662;10.162;2023-06-10T12:59:34;5.57;;;2.55;;
28587;SDS011;15787;49.662;10.162;2023-06-10T13:02:07;4.82;;;2.85;;
28587;SDS011;15787;49.662;10.162;2023-06-10T13:04:40;3.05;;;2.72;;
28587;SDS011;15787;49.662;10.162;2023-06-10T13:07:14;3.70;;;2.08;;
28587;SDS011;15787;49.662;10.162;2023-06-10T13:09:47;3.00;;;2.60;;
28587;SDS011;15787;49.662;10.162;2023-06-10T13:12:20;3.20;;;2.10;;
28587;SDS011;15787;49.662;10.162;2023-06-10T13:15:14;4.35;;;2.67;;
28587;SDS011;15787;49.662;10.162;2023-06-10T13:17:47;3.05;;;2.72;;
28587;SDS011;15787;49.662;10.162;2023-06-10T13:20:22;3.10;;;2.20;;
28587;SDS011;15787;49.662;10.162;2023-06-10T13:22:56;3.78;;;2.10;;
28587;SDS011;15787;49.662;10.162;2023-06-10T13:25:29;2.35;;;1.80;;
28587;SDS011;15787;49.662;10.162;2023-06-10T13:28:02;3.05;;;1.98;;
28587;SDS011;15787;49.662;10.162;2023-06-10T13:30:36;2.70;;;2.20;;
28587;SDS011;15787;49.662;10.162;2023-06-10T13:33:09;3.50;;;2.28;;
28587;SDS011;15787;49.662;10.162;2023-06-10T13:35:42;2.33;;;1.85;;
28587;SDS011;15787;49.662;10.162;2023-06-10T13:38:15;6.22;;;2.25;;
28587;SDS011;15787;49.662;10.162;2023-06-10T13:40:48;2.50;;;1.98;;
28587;SDS011;15787;49.662;10.162;2023-06-10T13:43:22;2.85;;;2.30;;
28587;SDS011;15787;49.662;10.162;2023-06-10T13:45:56;3.35;;;2.20;;
28587;SDS011;15787;49.662;10.162;2023-06-10T13:48:30;2.28;;;2.00;;
28587;SDS011;15787;49.662;10.162;2023-06-10T13:51:03;3.28;;;1.83;;
28587;SDS011;15787;49.662;10.162;2023-06-10T13:53:36;2.03;;;1.70;;
28587;SDS011;15787;49.662;10.162;2023-06-10T13:56:09;1.83;;;1.60;;
28587;SDS011;15787;49.662;10.162;2023-06-10T13:58:43;2.80;;;1.92;;
28587;SDS011;15787;49.662;10.162;2023-06-10T14:01:18;1.98;;;1.50;;
28587;SDS011;15787;49.662;10.162;2023-06-10T14:03:50;2.65;;;2.10;;
28587;SDS011;15787;49.662;10.162;2023-06-10T14:06:24;1.75;;;1.63;;
28587;SDS011;15787;49.662;10.162;2023-06-10T14:08:57;2.40;;;1.67;;
28587;SDS011;15787;49.662;10.162;2023-06-10T14:11:30;6.78;;;2.15;;
28587;SDS011;15787;49.662;10.162;2023-06-10T14:14:05;3.35;;;1.50;;
28587;SDS011;15787;49.662;10.162;2023-06-10T14:16:39;2.30;;;1.90;;
28587;SDS011;15787;49.662;10.162;2023-06-10T14:19:14;4.18;;;2.08;;
28587;SDS011;15787;49.662;10.162;2023-06-10T14:21:47;2.28;;;1.63;;
28587;SDS011;15787;49.662;10.162;2023-06-10T14:24:21;2.90;;;1.80;;
28587;SDS011;15787;49.662;10.162;2023-06-10T14:26:54;2.75;;;1.80;;
28587;SDS011;15787;49.662;10.162;2023-06-10T14:29:29;2.67;;;1.80;;
28587;SDS011;15787;49.662;10.162;2023-06-10T14:32:04;1.88;;;1.70;;
28587;SDS011;15787;49.662;10.162;2023-06-10T14:34:41;2.25;;;1.70;;
28587;SDS011;15787;49.662;10.162;2023-06-10T14:37:17;5.10;;;1.80;;
28587;SDS011;15787;49.662;10.162;2023-06-10T14:39:50;3.42;;;2.05;;
28587;SDS011;15787;49.662;10.162;2023-06-10T14:42:23;2.67;;;1.65;;
28587;SDS011;15787;49.662;10.162;2023-06-10T14:44:56;2.10;;;1.90;;
28587;SDS011;15787;49.662;10.162;2023-06-10T14:47:30;3.70;;;1.70;;
28587;SDS011;15787;49.662;10.162;2023-06-10T14:50:03;7.95;;;2.00;;
28587;SDS011;15787;49.662;10.162;2023-06-10T14:52:37;3.75;;;2.20;;
28587;SDS011;15787;49.662;10.162;2023-06-10T14:55:10;2.35;;;2.05;;
28587;SDS011;15787;49.662;10.162;2023-06-10T14:57:43;4.13;;;1.92;;
28587;SDS011;15787;49.662;10.162;2023-06-10T15:00:16;3.22;;;2.00;;
28587;SDS011;15787;49.662;10.162;2023-06-10T15:02:55;3.10;;;2.17;;
28587;SDS011;15787;49.662;10.162;2023-06-10T15:05:29;2.60;;;2.13;;
28587;SDS011;15787;49.662;10.162;2023-06-10T15:08:02;3.42;;;2.60;;
28587;SDS011;15787;49.662;10.162;2023-06-10T15:10:35;3.50;;;2.40;;
28587;SDS011;15787;49.662;10.162;2023-06-10T15:13:08;4.43;;;2.03;;
28587;SDS011;15787;49.662;10.162;2023-06-10T15:15:40;2.97;;;2.20;;
28587;SDS011;15787;49.662;10.162;2023-06-10T15:18:15;5.88;;;2.40;;
28587;SDS011;15787;49.662;10.162;2023-06-10T15:20:48;3.42;;;2.75;;
28587;SDS011;15787;49.662;10.162;2023-06-10T15:23:22;3.50;;;3.00;;
28587;SDS011;15787;49.662;10.162;2023-06-10T15:25:56;4.72;;;2.80;;